createdAt,value
2022-08-29T00:01:01.580Z,22.55
2022-08-29T00:03:31.394Z,22.40
2022-08-29T00:06:01.088Z,22.44
2022-08-29T00:08:30.475Z,22.44
2022-08-29T00:10:59.547Z,22.41
2022-08-29T00:13:30.046Z,22.47
2022-08-29T00:15:59.274Z,22.27
2022-08-29T00:18:28.741Z,22.38
2022-08-29T00:20:58.140Z,22.14
2022-08-29T00:23:27.123Z,22.29
2022-08-29T00:25:56.698Z,21.85
2022-08-29T00:28:25.830Z,21.98
2022-08-29T00:30:56.610Z,22.05
2022-08-29T00:33:25.816Z,21.82
2022-08-29T00:35:54.910Z,21.53
2022-08-29T00:38:27.792Z,21.78
2022-08-29T00:40:58.755Z,21.92
2022-08-29T00:43:31.033Z,21.70
2022-08-29T00:46:12.317Z,21.72
2022-08-29T00:48:43.723Z,21.66
2022-08-29T00:51:18.863Z,21.41
2022-08-29T00:53:54.054Z,21.59
2022-08-29T00:56:23.866Z,21.60
2022-08-29T00:58:56.791Z,21.55
2022-08-29T01:01:27.921Z,21.67
2022-08-29T01:03:57.800Z,21.43
2022-08-29T01:06:29.015Z,21.58
2022-08-29T01:08:58.914Z,21.26
2022-08-29T01:11:48.996Z,21.44
2022-08-29T01:14:20.605Z,21.36
2022-08-29T01:16:53.205Z,21.62
2022-08-29T01:19:33.486Z,21.35
2022-08-29T01:22:21.625Z,21.54
2022-08-29T01:24:54.811Z,21.43
2022-08-29T01:27:27.947Z,21.26
2022-08-29T01:29:57.515Z,21.35
2022-08-29T01:32:27.649Z,21.02
2022-08-29T01:34:56.582Z,21.24
2022-08-29T01:37:30.298Z,21.48
2022-08-29T01:40:01.026Z,21.47
2022-08-29T01:42:36.541Z,21.43
2022-08-29T01:45:10.070Z,21.59
2022-08-29T01:47:40.379Z,21.30
2022-08-29T01:50:13.450Z,21.49
2022-08-29T01:52:43.573Z,21.31
2022-08-29T01:55:13.947Z,21.25
2022-08-29T01:57:43.915Z,21.34
2022-08-29T02:00:14.147Z,21.49
2022-08-29T02:02:44.679Z,21.36
2022-08-29T02:05:14.129Z,21.53
2022-08-29T02:07:43.133Z,21.40
2022-08-29T02:10:14.398Z,21.24
2022-08-29T02:12:44.595Z,21.27
2022-08-29T02:15:14.508Z,21.36
2022-08-29T02:17:43.539Z,21.34
2022-08-29T02:20:14.298Z,21.24
2022-08-29T02:22:43.897Z,21.19
2022-08-29T02:25:32.517Z,21.16
2022-08-29T02:28:01.922Z,21.10
2022-08-29T02:30:31.115Z,21.16
2022-08-29T02:33:00.199Z,21.02
2022-08-29T02:35:35.027Z,20.97
2022-08-29T02:38:05.875Z,21.07
2022-08-29T02:40:36.980Z,21.26
2022-08-29T02:43:06.676Z,21.34
2022-08-29T02:45:38.794Z,21.18
2022-08-29T02:48:09.242Z,21.10
2022-08-29T02:50:40.592Z,21.31
2022-08-29T02:53:10.379Z,21.26
2022-08-29T02:55:40.940Z,21.19
2022-08-29T02:58:10.741Z,21.29
2022-08-29T03:00:39.765Z,21.24
2022-08-29T03:03:09.257Z,21.22
2022-08-29T03:05:39.398Z,21.27
2022-08-29T03:08:10.724Z,21.59
2022-08-29T03:15:54.958Z,21.56
2022-08-29T03:18:24.713Z,21.47
2022-08-29T03:20:54.421Z,21.53
2022-08-29T03:23:23.763Z,21.61
2022-08-29T03:25:53.081Z,21.69
2022-08-29T03:28:22.064Z,21.59
2022-08-29T03:30:51.386Z,21.78
2022-08-29T03:33:22.144Z,21.94
2022-08-29T03:35:51.319Z,21.57
2022-08-29T03:38:20.316Z,21.57
2022-08-29T03:40:49.512Z,21.58
2022-08-29T03:43:21.779Z,21.44
2022-08-29T03:45:51.468Z,21.51
2022-08-29T03:48:21.904Z,21.50
2022-08-29T03:50:54.476Z,21.53
2022-08-29T03:53:25.717Z,21.56
2022-08-29T03:55:56.257Z,21.49
2022-08-29T03:58:25.576Z,21.44
2022-08-29T04:00:54.874Z,21.53
2022-08-29T04:03:30.863Z,21.25
2022-08-29T04:06:01.368Z,21.44
2022-08-29T04:08:30.683Z,21.50
2022-08-29T04:10:59.646Z,21.53
2022-08-29T04:13:28.928Z,21.61
2022-08-29T04:15:58.034Z,21.61
2022-08-29T04:18:28.399Z,21.52
2022-08-29T04:21:04.100Z,21.21
2022-08-29T04:23:33.656Z,21.10
2022-08-29T04:26:31.320Z,20.97
2022-08-29T04:28:53.105Z,21.40
2022-08-29T04:31:23.029Z,21.21
2022-08-29T04:33:53.726Z,21.41
2022-08-29T04:36:23.118Z,21.57
2022-08-29T04:38:52.460Z,21.31
2022-08-29T04:41:21.610Z,21.22
2022-08-29T04:43:50.807Z,21.05
2022-08-29T04:46:24.044Z,21.15
2022-08-29T04:48:59.446Z,21.27
2022-08-29T04:51:31.157Z,20.95
2022-08-29T04:54:00.537Z,21.31
2022-08-29T04:56:29.851Z,21.45
2022-08-29T04:58:58.962Z,21.45
2022-08-29T05:01:28.317Z,21.51
2022-08-29T05:03:59.894Z,21.75
2022-08-29T05:06:29.443Z,21.54
2022-08-29T05:08:59.766Z,21.58
2022-08-29T05:11:31.174Z,21.83
2022-08-29T05:14:01.064Z,21.93
2022-08-29T05:16:32.240Z,21.72
2022-08-29T05:19:03.223Z,21.95
2022-08-29T05:21:35.013Z,22.17
2022-08-29T05:24:07.208Z,21.73
2022-08-29T05:26:38.951Z,21.63
2022-08-29T05:29:10.500Z,21.70
2022-08-29T05:31:41.269Z,21.98
2022-08-29T05:34:31.999Z,21.69
2022-08-29T05:37:02.427Z,21.89
2022-08-29T05:39:32.181Z,22.15
2022-08-29T05:42:01.453Z,22.19
2022-08-29T05:44:35.276Z,21.98
2022-08-29T05:47:06.414Z,21.93
2022-08-29T05:49:39.818Z,22.12
2022-08-29T05:52:09.583Z,21.87
2022-08-29T05:54:40.864Z,21.59
2022-08-29T05:57:16.642Z,21.52
2022-08-29T05:59:48.800Z,21.78
2022-08-29T06:02:19.786Z,21.72
2022-08-29T06:04:51.161Z,21.68
2022-08-29T06:07:20.957Z,21.78
2022-08-29T06:09:53.008Z,21.75
2022-08-29T06:12:24.452Z,21.84
2022-08-29T06:14:54.281Z,21.89
2022-08-29T06:17:23.615Z,21.78
2022-08-29T06:19:54.513Z,22.03
2022-08-29T06:22:23.882Z,21.81
2022-08-29T06:24:57.715Z,22.34
2022-08-29T06:27:28.031Z,22.45
2022-08-29T06:30:01.241Z,22.30
2022-08-29T06:32:33.771Z,22.39
2022-08-29T06:35:06.414Z,22.57
2022-08-29T06:37:36.721Z,22.40
2022-08-29T06:40:07.607Z,22.62
2022-08-29T06:42:37.788Z,22.78
2022-08-29T06:45:10.835Z,22.94
2022-08-29T06:47:40.051Z,22.65
2022-08-29T06:50:11.363Z,22.71
2022-08-29T06:52:40.568Z,22.80
2022-08-29T06:55:13.875Z,23.06
2022-08-29T06:57:46.009Z,23.07
2022-08-29T07:00:22.439Z,23.34
2022-08-29T07:02:53.208Z,23.65
2022-08-29T07:05:25.431Z,23.53
2022-08-29T07:07:54.581Z,23.41
2022-08-29T07:10:23.818Z,23.14
2022-08-29T07:12:53.771Z,23.21
2022-08-29T07:15:25.876Z,23.27
2022-08-29T07:17:59.727Z,23.64
2022-08-29T07:20:31.035Z,23.82
2022-08-29T07:23:00.877Z,23.92
2022-08-29T07:25:29.929Z,23.80
2022-08-29T07:27:58.946Z,24.02
2022-08-29T07:30:28.536Z,23.94
2022-08-29T07:35:30.396Z,23.71
2022-08-29T07:38:02.314Z,23.89
2022-08-29T07:40:31.922Z,23.91
2022-08-29T07:43:01.202Z,24.07
2022-08-29T07:45:30.363Z,24.51
2022-08-29T07:47:59.442Z,24.41
2022-08-29T07:50:28.721Z,24.04
2022-08-29T07:52:58.271Z,24.17
2022-08-29T07:55:29.113Z,24.52
2022-08-29T07:57:58.585Z,24.69
2022-08-29T08:00:29.023Z,24.22
2022-08-29T08:02:58.617Z,24.88
2022-08-29T08:05:28.340Z,24.36
2022-08-29T08:07:59.245Z,24.08
2022-08-29T08:10:31.863Z,24.21
2022-08-29T08:13:01.385Z,24.69
2022-08-29T08:15:30.576Z,24.53
2022-08-29T08:18:00.410Z,24.47
2022-08-29T08:20:29.682Z,24.31
2022-08-29T08:22:58.678Z,24.56
2022-08-29T08:25:28.281Z,24.61
2022-08-29T08:27:59.171Z,24.56
2022-08-29T08:30:31.707Z,24.67
2022-08-29T08:33:05.322Z,25.17
2022-08-29T08:35:37.312Z,25.13
2022-08-29T08:38:08.865Z,24.53
2022-08-29T08:40:44.886Z,24.93
2022-08-29T08:43:26.782Z,25.47
2022-08-29T08:45:57.722Z,25.51
2022-08-29T08:48:34.619Z,25.78
2022-08-29T08:51:10.875Z,25.50
2022-08-29T08:53:42.873Z,25.77
2022-08-29T08:56:16.856Z,25.62
2022-08-29T08:58:53.675Z,25.73
2022-08-29T09:01:29.095Z,25.42
2022-08-29T09:04:20.708Z,25.15
2022-08-29T09:07:01.568Z,25.98
2022-08-29T09:09:45.895Z,26.24
2022-08-29T09:12:28.367Z,26.23
2022-08-29T09:15:13.846Z,26.15
2022-08-29T09:17:47.780Z,26.14
2022-08-29T09:20:22.366Z,25.72
2022-08-29T09:23:00.653Z,26.04
2022-08-29T09:25:31.123Z,26.29
2022-08-29T09:28:01.889Z,26.39
2022-08-29T09:30:34.661Z,26.78
2022-08-29T09:33:07.789Z,26.31
2022-08-29T09:35:40.951Z,26.76
2022-08-29T09:38:21.305Z,26.78
2022-08-29T09:40:58.164Z,26.75
2022-08-29T09:43:29.784Z,26.66
2022-08-29T09:46:21.051Z,27.20
2022-08-29T09:48:52.749Z,26.97
2022-08-29T09:51:29.011Z,27.10
2022-08-29T09:54:15.982Z,26.92
2022-08-29T09:56:53.456Z,27.36
2022-08-29T09:59:27.976Z,26.44
2022-08-29T10:02:19.966Z,26.97
2022-08-29T10:04:52.604Z,27.33
2022-08-29T10:07:25.175Z,28.14
2022-08-29T10:10:01.020Z,27.94
2022-08-29T10:12:39.594Z,28.00
2022-08-29T10:15:33.659Z,28.99
2022-08-29T10:18:21.654Z,29.62
2022-08-29T10:21:13.197Z,30.51
2022-08-29T10:23:53.609Z,31.77
2022-08-29T10:26:35.174Z,30.59
2022-08-29T10:29:14.737Z,31.01
2022-08-29T10:31:52.766Z,31.79
2022-08-29T10:35:00.885Z,33.13
2022-08-29T10:37:40.958Z,33.99
2022-08-29T10:40:18.234Z,33.85
2022-08-29T10:42:51.555Z,31.69
2022-08-29T10:45:30.892Z,32.12
2022-08-29T10:48:10.025Z,33.04
2022-08-29T10:50:59.735Z,33.62
2022-08-29T10:53:34.843Z,33.52
2022-08-29T10:56:11.792Z,34.57
2022-08-29T10:58:56.444Z,33.15
2022-08-29T11:01:31.619Z,37.29
2022-08-29T11:04:17.216Z,34.25
2022-08-29T11:06:54.676Z,36.34
2022-08-29T11:09:29.706Z,32.63
2022-08-29T11:12:14.489Z,33.57
2022-08-29T11:14:52.875Z,34.17
2022-08-29T11:17:27.724Z,31.33
2022-08-29T11:20:09.676Z,30.11
2022-08-29T11:22:48.518Z,29.65
2022-08-29T11:25:20.190Z,28.02
2022-08-29T11:27:58.395Z,27.35
2022-08-29T11:30:41.028Z,27.95
2022-08-29T11:33:26.069Z,27.86
2022-08-29T11:36:13.276Z,28.54
2022-08-29T11:39:05.312Z,26.79
2022-08-29T11:41:38.843Z,27.16
2022-08-29T11:44:18.283Z,27.36
2022-08-29T11:46:56.657Z,29.31
2022-08-29T11:49:42.505Z,29.27
2022-08-29T11:52:25.190Z,27.73
2022-08-29T11:55:24.221Z,29.49
2022-08-29T11:58:00.541Z,28.58
2022-08-29T12:00:48.837Z,32.85
2022-08-29T12:03:45.004Z,37.30
2022-08-29T12:06:38.991Z,35.87
2022-08-29T12:09:41.061Z,35.80
2022-08-29T12:12:41.048Z,37.51
2022-08-29T12:15:43.833Z,38.03
2022-08-29T12:18:36.630Z,37.07
2022-08-29T12:21:45.688Z,35.45
2022-08-29T12:24:37.820Z,30.67
2022-08-29T12:27:22.131Z,30.13
2022-08-29T12:29:54.684Z,28.47
2022-08-29T12:32:57.423Z,34.35
2022-08-29T12:36:09.397Z,37.21
2022-08-29T12:38:53.371Z,39.01
2022-08-29T12:41:37.267Z,41.39
2022-08-29T12:44:16.701Z,40.74
2022-08-29T12:46:51.637Z,39.62
2022-08-29T12:49:25.447Z,41.37
2022-08-29T12:51:58.005Z,40.72
2022-08-29T12:54:33.756Z,42.71
2022-08-29T12:57:04.554Z,43.40
2022-08-29T12:59:35.408Z,37.84
2022-08-29T13:02:07.243Z,33.35
2022-08-29T13:04:39.066Z,31.35
2022-08-29T13:07:16.799Z,28.48
2022-08-29T13:09:51.750Z,25.97
2022-08-29T13:12:25.673Z,24.37
2022-08-29T13:15:00.719Z,23.65
2022-08-29T13:17:34.546Z,23.64
2022-08-29T13:20:42.629Z,23.19
2022-08-29T13:23:17.794Z,23.74
2022-08-29T13:25:51.187Z,23.90
2022-08-29T13:28:28.998Z,23.66
2022-08-29T13:31:08.949Z,24.01
2022-08-29T13:33:41.567Z,23.73
2022-08-29T13:36:31.827Z,23.65
2022-08-29T13:39:28.540Z,23.49
2022-08-29T13:42:16.229Z,24.31
2022-08-29T13:45:19.023Z,26.34
2022-08-29T13:48:18.996Z,32.71
2022-08-29T13:50:49.868Z,28.30
2022-08-29T13:53:19.352Z,27.74
2022-08-29T13:55:48.383Z,27.29
2022-08-29T13:58:21.966Z,27.84
2022-08-29T14:00:51.720Z,29.16
2022-08-29T14:03:22.936Z,31.61
2022-08-29T14:05:56.608Z,32.26
2022-08-29T14:08:26.042Z,33.97
2022-08-29T14:10:55.420Z,36.46
2022-08-29T14:13:24.503Z,34.26
2022-08-29T14:15:53.672Z,35.77
2022-08-29T14:18:22.982Z,35.38
2022-08-29T14:20:53.744Z,35.47
2022-08-29T14:23:23.372Z,31.54
2022-08-29T14:25:54.366Z,33.65
2022-08-29T14:28:23.329Z,36.41
2022-08-29T14:30:52.602Z,31.81
2022-08-29T14:33:23.564Z,27.77
2022-08-29T14:35:55.050Z,27.11
2022-08-29T14:38:24.431Z,26.61
2022-08-29T14:40:53.684Z,26.10
2022-08-29T14:43:22.743Z,26.15
2022-08-29T14:45:52.362Z,25.57
2022-08-29T14:48:21.647Z,26.09
2022-08-29T14:50:53.052Z,25.60
2022-08-29T14:53:22.560Z,25.35
2022-08-29T14:55:51.715Z,25.80
2022-08-29T14:58:21.346Z,25.97
2022-08-29T15:00:51.574Z,25.88
2022-08-29T15:03:25.455Z,25.97
2022-08-29T15:05:56.581Z,26.19
2022-08-29T15:08:25.711Z,25.69
2022-08-29T15:10:54.786Z,25.14
2022-08-29T15:13:24.234Z,24.82
2022-08-29T15:15:53.467Z,25.12
2022-08-29T15:19:00.650Z,26.11
2022-08-29T15:21:13.935Z,29.28
2022-08-29T15:23:43.114Z,31.84
2022-08-29T15:26:12.322Z,34.44
2022-08-29T15:28:42.015Z,33.09
2022-08-29T15:31:11.017Z,34.10
2022-08-29T15:33:41.060Z,34.59
2022-08-29T15:36:11.362Z,32.45
2022-08-29T15:38:43.077Z,33.33
2022-08-29T15:41:12.486Z,33.46
2022-08-29T15:43:41.609Z,33.50
2022-08-29T15:46:11.234Z,33.66
2022-08-29T15:48:40.811Z,33.24
2022-08-29T15:51:09.791Z,33.36
2022-08-29T15:53:39.857Z,31.23
2022-08-29T15:56:10.892Z,29.53
2022-08-29T15:58:40.130Z,28.43
2022-08-29T16:01:09.167Z,29.26
2022-08-29T16:03:38.572Z,28.84
2022-08-29T16:06:07.978Z,27.62
2022-08-29T16:08:37.137Z,27.97
2022-08-29T16:11:07.618Z,27.71
2022-08-29T16:13:38.032Z,26.81
2022-08-29T16:16:07.977Z,25.89
2022-08-29T16:18:37.045Z,25.77
2022-08-29T16:21:06.185Z,26.00
2022-08-29T16:23:35.951Z,25.91
2022-08-29T16:26:05.104Z,25.56
2022-08-29T16:28:34.297Z,25.16
2022-08-29T16:31:06.012Z,24.93
2022-08-29T16:33:35.498Z,24.87
2022-08-29T16:36:06.913Z,24.76
2022-08-29T16:38:36.697Z,24.82
2022-08-29T16:41:08.818Z,24.48
2022-08-29T16:43:39.477Z,24.81
2022-08-29T16:46:15.157Z,24.61
2022-08-29T16:48:45.023Z,24.52
2022-08-29T16:51:14.800Z,24.76
2022-08-29T16:53:48.489Z,24.33
2022-08-29T16:56:18.966Z,24.04
2022-08-29T16:59:02.019Z,24.00
2022-08-29T17:01:36.542Z,23.97
2022-08-29T17:04:10.636Z,23.92
2022-08-29T17:06:41.552Z,23.69
2022-08-29T17:09:09.890Z,23.80
2022-08-29T17:11:38.634Z,23.91
2022-08-29T17:14:07.441Z,23.34
2022-08-29T17:16:38.896Z,23.20
2022-08-29T17:19:08.893Z,22.86
2022-08-29T17:21:38.032Z,22.57
2022-08-29T17:24:08.290Z,22.76
2022-08-29T17:26:40.844Z,22.74
2022-08-29T17:29:10.527Z,22.73
2022-08-29T17:31:41.285Z,22.65
2022-08-29T17:34:11.127Z,22.69
2022-08-29T17:36:43.812Z,22.72
2022-08-29T17:39:14.037Z,22.53
2022-08-29T17:41:44.483Z,22.62
2022-08-29T17:44:14.437Z,22.71
2022-08-29T17:46:45.279Z,22.35
2022-08-29T17:49:14.587Z,22.25
2022-08-29T17:51:43.715Z,22.47
2022-08-29T17:54:24.931Z,22.45
2022-08-29T17:56:57.673Z,22.53
2022-08-29T17:59:28.963Z,22.38
2022-08-29T18:01:59.937Z,22.17
2022-08-29T18:04:29.602Z,22.25
2022-08-29T18:06:58.969Z,22.03
2022-08-29T18:09:28.428Z,22.19
2022-08-29T18:12:00.936Z,22.24
2022-08-29T18:14:30.372Z,22.18
2022-08-29T18:17:01.127Z,22.16
2022-08-29T18:19:30.134Z,22.03
2022-08-29T18:22:02.191Z,21.82
2022-08-29T18:24:31.749Z,21.81
2022-08-29T18:27:01.606Z,21.55
2022-08-29T18:29:30.617Z,21.35
2022-08-29T18:32:01.350Z,21.43
2022-08-29T18:34:30.674Z,21.68
2022-08-29T18:36:59.745Z,21.57
2022-08-29T18:39:29.290Z,21.33
2022-08-29T18:41:59.105Z,21.33
2022-08-29T18:44:28.365Z,21.28
2022-08-29T18:46:57.322Z,21.36
2022-08-29T18:49:42.283Z,21.30
2022-08-29T18:52:12.688Z,21.58
2022-08-29T18:54:42.392Z,21.55
2022-08-29T18:57:12.030Z,21.44
2022-08-29T18:59:41.444Z,21.54
2022-08-29T19:02:13.299Z,21.38
2022-08-29T19:04:44.199Z,21.20
2022-08-29T19:07:34.014Z,21.18
2022-08-29T19:10:03.562Z,21.23
2022-08-29T19:12:36.668Z,20.98
2022-08-29T19:15:06.982Z,21.02
2022-08-29T19:17:38.511Z,20.98
2022-08-29T19:20:30.610Z,21.24
2022-08-29T19:23:00.028Z,20.95
2022-08-29T19:25:30.712Z,20.84
2022-08-29T19:28:00.173Z,20.95
2022-08-29T19:30:31.011Z,20.82
2022-08-29T19:33:00.207Z,20.82
2022-08-29T19:35:31.063Z,20.75
2022-08-29T19:38:00.705Z,20.76
2022-08-29T19:40:35.527Z,20.53
2022-08-29T19:43:13.865Z,20.74
2022-08-29T19:45:44.581Z,20.84
2022-08-29T19:48:17.339Z,20.65
2022-08-29T19:50:48.547Z,20.93
2022-08-29T19:53:26.301Z,20.81
2022-08-29T19:55:57.003Z,20.78
2022-08-29T19:58:31.116Z,20.64
2022-08-29T20:01:03.151Z,20.75
2022-08-29T20:03:37.771Z,20.75
2022-08-29T20:06:09.312Z,20.65
2022-08-29T20:08:41.321Z,20.70
2022-08-29T20:11:13.529Z,20.77
2022-08-29T20:13:47.609Z,21.08
2022-08-29T20:16:23.301Z,20.91
2022-08-29T20:18:53.502Z,20.83
2022-08-29T20:21:24.775Z,20.75
2022-08-29T20:23:57.998Z,20.78
2022-08-29T20:26:31.358Z,21.04
2022-08-29T20:29:02.388Z,21.18
2022-08-29T20:31:31.925Z,21.10
2022-08-29T20:34:01.081Z,21.10
2022-08-29T20:36:48.700Z,21.28
2022-08-29T20:39:20.743Z,21.28
2022-08-29T20:41:51.639Z,21.25
2022-08-29T20:44:21.793Z,21.32
2022-08-29T20:46:52.124Z,21.22
2022-08-29T20:49:25.109Z,21.45
2022-08-29T20:51:55.819Z,21.72
2022-08-29T20:54:26.515Z,21.24
2022-08-29T20:56:56.309Z,21.43
2022-08-29T20:59:26.968Z,21.15
2022-08-29T21:01:57.278Z,20.97
2022-08-29T21:04:44.384Z,21.31
2022-08-29T21:07:16.456Z,21.16
2022-08-29T21:09:47.310Z,20.91
2022-08-29T21:12:17.467Z,21.06
2022-08-29T21:14:46.867Z,21.01
2022-08-29T21:17:16.587Z,21.25
2022-08-29T21:19:47.004Z,21.08
2022-08-29T21:22:20.615Z,21.18
2022-08-29T21:24:52.411Z,21.00
2022-08-29T21:27:21.374Z,21.24
2022-08-29T21:29:50.453Z,21.24
2022-08-29T21:32:22.409Z,21.18
2022-08-29T21:34:51.855Z,20.92
2022-08-29T21:37:22.803Z,21.08
2022-08-29T21:39:51.940Z,21.14
2022-08-29T21:42:20.978Z,20.96
2022-08-29T21:44:50.585Z,21.22
2022-08-29T21:47:19.664Z,20.87
2022-08-29T21:49:51.831Z,20.69
2022-08-29T21:52:22.945Z,20.79
2022-08-29T21:54:54.058Z,20.90
2022-08-29T21:57:40.861Z,21.07
2022-08-29T22:00:13.443Z,21.06
2022-08-29T22:02:43.011Z,20.97
2022-08-29T22:05:12.204Z,21.35
2022-08-29T22:07:43.136Z,20.85
2022-08-29T22:10:14.179Z,21.07
2022-08-29T22:12:43.642Z,21.03
2022-08-29T22:15:30.543Z,21.23
2022-08-29T22:18:00.006Z,21.03
2022-08-29T22:20:29.445Z,21.09
2022-08-29T22:23:00.084Z,20.93
2022-08-29T22:25:29.677Z,21.15
2022-08-29T22:27:58.952Z,20.76
2022-08-29T22:30:31.847Z,20.78
2022-08-29T22:33:02.627Z,20.65
2022-08-29T22:35:32.350Z,20.71
2022-08-29T22:38:03.460Z,20.51
2022-08-29T22:40:33.175Z,20.20
2022-08-29T22:43:02.378Z,20.76
2022-08-29T22:45:31.675Z,20.71
2022-08-29T22:48:00.880Z,20.72
2022-08-29T22:50:29.870Z,20.74
2022-08-29T22:53:01.793Z,20.88
2022-08-29T22:55:33.124Z,20.81
2022-08-29T22:58:02.257Z,20.78
2022-08-29T23:00:32.711Z,20.74
2022-08-29T23:03:03.363Z,20.71
2022-08-29T23:05:32.668Z,20.69
2022-08-29T23:08:02.003Z,20.76
2022-08-29T23:10:32.694Z,20.66
2022-08-29T23:13:01.809Z,20.60
2022-08-29T23:15:31.631Z,20.67
2022-08-29T23:18:02.247Z,20.92
2022-08-29T23:20:31.349Z,21.06
2022-08-29T23:23:01.255Z,20.84
2022-08-29T23:25:32.818Z,20.88
2022-08-29T23:28:02.195Z,20.67
2022-08-29T23:30:31.650Z,20.54
2022-08-29T23:33:00.709Z,20.63
2022-08-29T23:35:29.934Z,20.90
2022-08-29T23:37:58.899Z,20.90
2022-08-29T23:40:28.484Z,20.76
2022-08-29T23:42:59.126Z,20.86
2022-08-29T23:45:29.275Z,21.04
2022-08-29T23:47:58.584Z,20.96
2022-08-29T23:50:27.657Z,21.13
2022-08-29T23:52:57.371Z,20.67
2022-08-29T23:55:26.776Z,20.60
2022-08-29T23:57:56.236Z,20.40
